createdAt,value
2022-08-30T00:02:00.658Z,90.10
2022-08-30T00:07:04.451Z,90.20
2022-08-30T00:12:09.045Z,90.30
2022-08-30T00:17:14.457Z,90.40
2022-08-30T00:22:18.123Z,90.80
2022-08-30T00:27:21.962Z,90.60
2022-08-30T00:32:27.296Z,90.70
2022-08-30T00:37:31.122Z,90.70
2022-08-30T00:42:35.201Z,90.90
2022-08-30T00:47:40.592Z,91.00
2022-08-30T00:52:47.786Z,91.10
2022-08-30T00:57:54.921Z,91.10
2022-08-30T01:03:00.029Z,91.20
2022-08-30T01:08:04.129Z,91.30
2022-08-30T01:13:10.769Z,91.50
2022-08-30T01:18:17.502Z,91.50
2022-08-30T01:23:23.644Z,91.60
2022-08-30T01:28:30.197Z,91.70
2022-08-30T01:33:33.900Z,91.70
2022-08-30T01:38:43.143Z,91.80
2022-08-30T01:43:47.763Z,91.80
2022-08-30T01:48:54.317Z,92.00
2022-08-30T01:54:00.227Z,92.10
2022-08-30T01:59:04.083Z,92.30
2022-08-30T02:04:09.310Z,92.20
2022-08-30T02:09:14.725Z,92.30
2022-08-30T02:14:18.558Z,92.40
2022-08-30T02:19:24.924Z,92.50
2022-08-30T02:24:30.034Z,92.50
2022-08-30T02:29:34.057Z,92.60
2022-08-30T02:34:37.767Z,92.70
2022-08-30T02:39:42.983Z,92.80
2022-08-30T02:44:46.719Z,92.90
2022-08-30T02:49:50.414Z,93.00
2022-08-30T02:54:56.079Z,93.00
2022-08-30T02:59:59.776Z,93.10
2022-08-30T03:05:04.281Z,93.20
2022-08-30T03:10:11.199Z,93.20
2022-08-30T03:15:18.177Z,93.30
2022-08-30T03:20:23.166Z,93.40
2022-08-30T03:25:29.377Z,93.50
2022-08-30T03:30:33.202Z,93.50
2022-08-30T03:35:36.925Z,93.60
2022-08-30T03:40:42.041Z,93.70
2022-08-30T03:45:46.075Z,93.70
2022-08-30T03:50:49.771Z,94.10
2022-08-30T03:55:54.987Z,93.80
2022-08-30T04:00:59.139Z,93.90
2022-08-30T04:06:03.015Z,94.00
2022-08-30T04:11:08.554Z,94.10
2022-08-30T04:16:12.569Z,94.20
2022-08-30T04:21:16.758Z,94.20
2022-08-30T04:26:22.098Z,94.30
2022-08-30T04:31:26.772Z,94.40
2022-08-30T04:36:30.976Z,94.40
2022-08-30T04:41:40.717Z,94.50
2022-08-30T04:46:44.838Z,94.60
2022-08-30T04:51:48.679Z,94.60
2022-08-30T04:56:53.937Z,95.00
2022-08-30T05:01:57.717Z,94.80
2022-08-30T05:07:01.679Z,94.80
2022-08-30T05:12:06.994Z,94.80
2022-08-30T05:17:10.625Z,94.90
2022-08-30T05:22:14.337Z,94.90
2022-08-30T05:27:20.085Z,95.00
2022-08-30T05:32:24.248Z,95.10
2022-08-30T05:37:29.038Z,95.20
2022-08-30T05:42:37.792Z,95.10
2022-08-30T05:47:41.830Z,95.30
2022-08-30T05:52:46.111Z,95.20
2022-08-30T05:57:51.207Z,95.30
2022-08-30T06:02:55.867Z,95.40
2022-08-30T06:08:00.035Z,95.40
2022-08-30T06:13:05.350Z,95.40
2022-08-30T06:18:09.115Z,95.40
2022-08-30T06:23:12.848Z,95.40
2022-08-30T06:28:18.442Z,95.50
2022-08-30T06:33:22.240Z,95.50
2022-08-30T06:38:25.906Z,95.50
2022-08-30T06:43:31.966Z,95.50
2022-08-30T06:48:36.134Z,95.60
2022-08-30T06:53:39.776Z,95.50
2022-08-30T06:58:46.849Z,95.50
2022-08-30T07:03:50.884Z,95.50
2022-08-30T07:08:56.473Z,95.40
2022-08-30T07:14:02.099Z,95.40
2022-08-30T07:19:07.147Z,95.30
2022-08-30T07:24:11.489Z,95.30
2022-08-30T07:29:17.900Z,95.20
2022-08-30T07:34:23.399Z,95.20
2022-08-30T07:39:29.968Z,95.10
2022-08-30T07:44:37.522Z,95.10
2022-08-30T07:49:41.180Z,95.00
2022-08-30T07:54:44.793Z,95.00
2022-08-30T07:59:50.998Z,94.90
2022-08-30T08:04:54.922Z,94.80
2022-08-30T08:09:58.678Z,94.70
2022-08-30T08:15:06.780Z,94.70
2022-08-30T08:20:12.713Z,94.60
2022-08-30T08:25:16.625Z,94.50
2022-08-30T08:30:23.907Z,94.40
2022-08-30T08:35:27.650Z,94.30
2022-08-30T08:40:36.176Z,94.10
2022-08-30T08:45:48.547Z,94.10
2022-08-30T08:51:06.243Z,93.80
2022-08-30T08:56:15.135Z,93.80
2022-08-30T09:01:23.000Z,93.70
2022-08-30T09:06:45.478Z,93.40
2022-08-30T09:11:50.002Z,93.30
2022-08-30T09:17:02.798Z,93.10
2022-08-30T09:22:16.561Z,93.00
2022-08-30T09:27:24.810Z,92.80
2022-08-30T09:32:33.541Z,92.40
2022-08-30T09:37:40.223Z,92.10
2022-08-30T09:43:05.364Z,92.40
2022-08-30T09:48:30.078Z,92.00
2022-08-30T09:53:37.289Z,91.80
2022-08-30T09:58:58.726Z,91.50
2022-08-30T10:04:13.311Z,91.40
2022-08-30T10:09:25.201Z,91.40
2022-08-30T10:14:56.618Z,91.20
2022-08-30T10:20:14.690Z,90.80
2022-08-30T10:25:24.013Z,90.90
2022-08-30T10:30:31.703Z,90.80
2022-08-30T10:35:42.477Z,90.00
2022-08-30T10:41:08.378Z,89.70
2022-08-30T10:46:19.576Z,89.60
2022-08-30T10:51:29.026Z,88.20
2022-08-30T10:56:33.128Z,87.50
2022-08-30T11:01:51.558Z,88.20
2022-08-30T11:07:10.093Z,86.90
2022-08-30T11:12:34.481Z,85.20
2022-08-30T11:17:42.232Z,83.80
2022-08-30T11:23:16.035Z,82.90
2022-08-30T11:28:55.744Z,82.90
2022-08-30T11:34:01.143Z,81.60
2022-08-30T11:39:09.785Z,82.10
2022-08-30T11:44:16.398Z,80.80
2022-08-30T11:49:38.748Z,80.50
2022-08-30T11:54:59.421Z,79.70
2022-08-30T12:00:12.006Z,79.90
2022-08-30T12:05:49.558Z,79.90
2022-08-30T12:10:58.770Z,79.00
2022-08-30T12:16:03.504Z,78.20
2022-08-30T12:21:28.217Z,77.60
2022-08-30T12:26:36.599Z,77.00
2022-08-30T12:31:42.890Z,76.60
2022-08-30T12:36:53.621Z,76.30
2022-08-30T12:42:17.623Z,75.70
2022-08-30T12:47:28.082Z,75.20
2022-08-30T12:52:35.869Z,74.80
2022-08-30T12:57:43.412Z,74.50
2022-08-30T13:02:52.297Z,73.90
2022-08-30T13:08:10.404Z,73.70
2022-08-30T13:13:32.769Z,73.50
2022-08-30T13:18:36.982Z,72.60
2022-08-30T13:23:41.003Z,72.60
2022-08-30T13:28:48.751Z,72.10
2022-08-30T13:33:54.137Z,71.60
2022-08-30T13:39:08.079Z,71.40
2022-08-30T13:50:40.106Z,70.60
2022-08-30T13:56:06.923Z,70.40
2022-08-30T14:01:11.294Z,70.00
2022-08-30T14:06:32.718Z,69.60
2022-08-30T14:11:41.603Z,69.40
2022-08-30T14:16:47.189Z,69.10
2022-08-30T14:21:52.555Z,68.90
2022-08-30T14:26:56.343Z,68.80
2022-08-30T14:32:00.640Z,68.50
2022-08-30T14:37:06.865Z,68.00
2022-08-30T14:42:12.589Z,67.70
2022-08-30T14:47:28.168Z,67.10
2022-08-30T14:52:35.013Z,67.20
2022-08-30T14:57:39.398Z,67.00
2022-08-30T15:02:43.078Z,67.00
2022-08-30T15:07:50.413Z,66.30
2022-08-30T15:12:54.538Z,65.50
2022-08-30T15:17:58.919Z,65.50
2022-08-30T15:23:04.138Z,65.60
2022-08-30T15:28:09.358Z,65.40
2022-08-30T15:33:13.162Z,65.10
2022-08-30T15:38:21.951Z,64.60
2022-08-30T15:43:25.823Z,64.30
2022-08-30T15:48:29.762Z,64.00
2022-08-30T15:53:35.874Z,63.80
2022-08-30T15:58:40.003Z,63.70
2022-08-30T16:03:45.014Z,63.40
2022-08-30T16:08:51.272Z,63.30
2022-08-30T16:13:57.172Z,63.10
2022-08-30T16:19:01.996Z,63.20
2022-08-30T16:24:10.540Z,63.10
2022-08-30T16:29:17.274Z,62.80
2022-08-30T16:34:21.864Z,62.30
2022-08-30T16:39:26.992Z,62.20
2022-08-30T16:44:36.285Z,61.90
2022-08-30T16:49:40.728Z,62.00
2022-08-30T16:54:47.011Z,61.40
2022-08-30T16:59:56.524Z,61.50
2022-08-30T17:05:02.601Z,61.20
2022-08-30T17:10:08.911Z,61.20
2022-08-30T17:15:14.630Z,61.40
2022-08-30T17:20:18.764Z,61.60
2022-08-30T17:25:25.797Z,61.70
2022-08-30T17:30:33.778Z,61.70
2022-08-30T17:35:37.833Z,61.80
2022-08-30T17:40:43.748Z,61.50
2022-08-30T17:45:47.581Z,61.60
2022-08-30T17:50:59.313Z,61.30
2022-08-30T17:56:05.778Z,61.40
2022-08-30T18:01:12.277Z,61.60
2022-08-30T18:06:16.217Z,61.50
2022-08-30T18:11:21.934Z,61.60
2022-08-30T18:16:26.389Z,61.70
2022-08-30T18:21:30.417Z,61.50
2022-08-30T18:26:36.634Z,61.50
2022-08-30T18:31:47.113Z,61.50
2022-08-30T18:36:50.851Z,61.50
2022-08-30T18:41:57.056Z,61.40
2022-08-30T18:47:03.712Z,61.50
2022-08-30T18:52:30.869Z,61.50
2022-08-30T18:57:54.981Z,61.60
2022-08-30T19:08:25.395Z,61.50
2022-08-30T19:13:31.560Z,61.30
2022-08-30T19:18:37.154Z,61.50
2022-08-30T19:23:40.939Z,61.40
2022-08-30T19:28:46.117Z,61.60
2022-08-30T19:33:49.766Z,61.60
2022-08-30T19:38:53.504Z,61.50
2022-08-30T19:44:03.039Z,61.60
2022-08-30T19:49:10.249Z,61.60
2022-08-30T19:54:14.409Z,61.60
2022-08-30T19:59:20.088Z,61.70
2022-08-30T20:04:23.969Z,61.90
2022-08-30T20:09:28.308Z,61.90
2022-08-30T20:14:34.685Z,62.00
2022-08-30T20:19:39.287Z,62.00
2022-08-30T20:24:43.928Z,62.10
2022-08-30T20:29:49.337Z,62.30
2022-08-30T20:34:53.882Z,62.50
2022-08-30T20:40:02.236Z,62.40
2022-08-30T20:45:10.170Z,62.70
2022-08-30T20:50:16.295Z,62.90
2022-08-30T20:55:20.140Z,63.10
2022-08-30T21:00:25.497Z,63.30
2022-08-30T21:05:30.357Z,63.50
2022-08-30T21:10:34.068Z,63.60
2022-08-30T21:15:39.251Z,63.90
2022-08-30T21:20:43.806Z,64.80
2022-08-30T21:25:47.926Z,64.20
2022-08-30T21:31:05.624Z,64.60
2022-08-30T21:36:30.637Z,65.00
2022-08-30T21:41:42.086Z,65.00
2022-08-30T21:46:49.757Z,65.40
2022-08-30T21:51:55.769Z,65.70
2022-08-30T21:57:03.622Z,66.00
2022-08-30T22:02:10.389Z,66.10
2022-08-30T22:07:14.620Z,66.60
2022-08-30T22:12:19.005Z,66.80
2022-08-30T22:17:24.825Z,67.20
2022-08-30T22:22:29.091Z,67.60
2022-08-30T22:27:36.080Z,67.80
2022-08-30T22:32:42.505Z,68.00
2022-08-30T22:37:47.792Z,68.10
2022-08-30T22:42:57.631Z,69.00
2022-08-30T22:48:02.882Z,69.40
2022-08-30T22:53:07.103Z,69.80
2022-08-30T22:58:10.833Z,69.70
2022-08-30T23:03:20.431Z,70.30
2022-08-30T23:08:24.292Z,70.60
2022-08-30T23:13:28.044Z,71.10
2022-08-30T23:18:34.273Z,71.70
2022-08-30T23:23:55.917Z,72.10
2022-08-30T23:29:24.783Z,72.40
2022-08-30T23:34:47.314Z,72.90
2022-08-30T23:40:08.366Z,73.70
2022-08-30T23:45:30.128Z,73.70
2022-08-30T23:50:52.425Z,74.30
2022-08-30T23:56:13.792Z,74.70
